createdAt,value
2022-10-24T00:02:13.706Z,16.90
2022-10-24T00:04:44.780Z,17.30
2022-10-24T00:07:15.573Z,16.90
2022-10-24T00:09:46.552Z,17.00
2022-10-24T00:12:17.317Z,16.90
2022-10-24T00:14:48.635Z,16.90
2022-10-24T00:17:21.931Z,16.90
2022-10-24T00:19:54.580Z,16.90
2022-10-24T00:22:26.677Z,16.90
2022-10-24T00:24:59.940Z,16.90
2022-10-24T00:27:31.075Z,16.90
2022-10-24T00:30:02.811Z,16.90
2022-10-24T00:32:36.370Z,17.00
2022-10-24T00:35:07.780Z,17.10
2022-10-24T00:37:38.501Z,17.00
2022-10-24T00:40:11.158Z,17.00
2022-10-24T00:42:41.828Z,17.00
2022-10-24T00:45:42.502Z,17.00
2022-10-24T00:48:21.899Z,17.00
2022-10-24T00:50:55.332Z,17.00
2022-10-24T00:53:28.403Z,17.10
2022-10-24T00:56:02.454Z,17.00
2022-10-24T00:58:36.485Z,17.00
2022-10-24T01:01:09.149Z,17.00
2022-10-24T01:03:44.038Z,17.40
2022-10-24T01:06:31.926Z,17.30
2022-10-24T01:09:19.515Z,17.00
2022-10-24T01:12:10.203Z,17.10
2022-10-24T01:14:53.326Z,17.10
2022-10-24T01:17:32.448Z,17.10
2022-10-24T01:20:37.690Z,17.10
2022-10-24T01:23:29.916Z,17.20
2022-10-24T01:26:13.616Z,17.20
2022-10-24T01:28:54.988Z,17.20
2022-10-24T01:31:33.107Z,17.20
2022-10-24T01:34:10.717Z,16.90
2022-10-24T01:36:50.137Z,17.10
2022-10-24T01:39:24.768Z,17.10
2022-10-24T01:41:58.987Z,17.10
2022-10-24T01:44:34.961Z,17.10
2022-10-24T01:47:13.133Z,17.10
2022-10-24T01:49:48.786Z,17.10
2022-10-24T01:52:20.368Z,17.10
2022-10-24T01:54:52.055Z,17.00
2022-10-24T01:57:22.762Z,17.10
2022-10-24T01:59:53.494Z,17.20
2022-10-24T02:02:35.453Z,16.70
2022-10-24T02:05:10.470Z,17.20
2022-10-24T02:07:44.965Z,17.20
2022-10-24T02:10:19.833Z,17.20
2022-10-24T02:12:56.079Z,17.20
2022-10-24T02:15:30.448Z,17.20
2022-10-24T02:18:04.517Z,17.20
2022-10-24T02:20:39.178Z,17.30
2022-10-24T02:23:18.970Z,17.30
2022-10-24T02:25:54.586Z,17.30
2022-10-24T02:28:32.057Z,17.30
2022-10-24T02:31:06.270Z,17.30
2022-10-24T02:33:44.602Z,17.30
2022-10-24T02:36:20.030Z,17.40
2022-10-24T02:38:53.514Z,17.40
2022-10-24T02:41:27.181Z,17.40
2022-10-24T02:43:59.678Z,17.40
2022-10-24T02:46:31.168Z,17.40
2022-10-24T02:49:06.460Z,17.40
2022-10-24T02:51:40.943Z,17.30
2022-10-24T02:54:11.697Z,17.30
2022-10-24T02:56:48.161Z,17.30
2022-10-24T02:59:18.868Z,17.30
2022-10-24T03:01:49.687Z,17.30
2022-10-24T03:04:23.120Z,17.30
2022-10-24T03:06:54.028Z,17.30
2022-10-24T03:09:27.252Z,17.30
2022-10-24T03:11:59.903Z,17.30
2022-10-24T03:14:32.837Z,17.30
2022-10-24T03:17:03.860Z,17.30
2022-10-24T03:19:38.517Z,17.20
2022-10-24T03:22:09.710Z,17.30
2022-10-24T03:24:44.464Z,17.30
2022-10-24T03:27:25.462Z,17.30
2022-10-24T03:29:56.266Z,17.30
2022-10-24T03:35:23.212Z,17.30
2022-10-24T03:37:53.937Z,17.30
2022-10-24T03:40:25.090Z,17.40
2022-10-24T03:42:59.386Z,17.30
2022-10-24T03:45:40.318Z,17.30
2022-10-24T03:48:11.082Z,17.30
2022-10-24T03:50:44.423Z,17.30
2022-10-24T03:53:15.637Z,17.30
2022-10-24T03:55:46.368Z,17.30
2022-10-24T03:58:17.279Z,17.30
2022-10-24T04:00:48.025Z,17.30
2022-10-24T04:03:18.770Z,17.30
2022-10-24T04:05:52.137Z,17.20
2022-10-24T04:08:23.119Z,17.30
2022-10-24T04:10:53.938Z,17.30
2022-10-24T04:13:24.667Z,17.50
2022-10-24T04:15:55.903Z,17.20
2022-10-24T04:18:26.724Z,17.20
2022-10-24T04:21:00.024Z,17.30
2022-10-24T04:23:34.450Z,17.20
2022-10-24T04:26:05.496Z,17.20
2022-10-24T04:28:36.560Z,17.20
2022-10-24T04:31:10.014Z,17.20
2022-10-24T04:33:40.821Z,17.20
2022-10-24T04:36:16.176Z,17.20
2022-10-24T04:38:47.007Z,17.20
2022-10-24T04:41:17.812Z,17.10
2022-10-24T04:43:48.579Z,17.10
2022-10-24T04:46:19.309Z,17.10
2022-10-24T04:48:53.095Z,17.10
2022-10-24T04:51:26.836Z,17.30
2022-10-24T04:53:57.556Z,17.10
2022-10-24T04:56:28.620Z,17.10
2022-10-24T04:58:59.346Z,17.00
2022-10-24T05:01:30.170Z,17.00
2022-10-24T05:06:44.223Z,17.00
2022-10-24T05:09:50.916Z,17.00
2022-10-24T05:12:23.621Z,17.30
2022-10-24T05:14:54.356Z,17.00
2022-10-24T05:17:28.329Z,17.00
2022-10-24T05:19:59.099Z,17.00
2022-10-24T05:22:32.423Z,17.00
2022-10-24T05:25:03.252Z,17.00
2022-10-24T05:27:34.308Z,17.00
2022-10-24T05:30:05.114Z,17.00
2022-10-24T05:32:38.739Z,17.00
2022-10-24T05:35:13.467Z,17.00
2022-10-24T05:37:48.201Z,16.90
2022-10-24T05:40:22.292Z,16.90
2022-10-24T05:42:53.015Z,17.00
2022-10-24T05:45:25.384Z,16.90
2022-10-24T05:47:56.186Z,16.90
2022-10-24T05:50:27.411Z,16.90
2022-10-24T05:53:00.732Z,16.90
2022-10-24T05:55:34.596Z,16.90
2022-10-24T05:58:05.365Z,16.80
2022-10-24T06:00:36.321Z,16.80
2022-10-24T06:03:07.112Z,16.80
2022-10-24T06:05:37.876Z,16.90
2022-10-24T06:08:11.450Z,16.90
2022-10-24T06:10:42.643Z,16.80
2022-10-24T06:13:15.007Z,16.80
2022-10-24T06:15:48.752Z,16.80
2022-10-24T06:18:22.330Z,16.80
2022-10-24T06:20:55.512Z,16.40
2022-10-24T06:23:29.737Z,17.00
2022-10-24T06:26:00.862Z,16.80
2022-10-24T06:28:31.884Z,16.90
2022-10-24T06:31:03.569Z,16.90
2022-10-24T06:33:37.362Z,16.90
2022-10-24T06:36:10.877Z,16.90
2022-10-24T06:38:44.962Z,16.90
2022-10-24T06:41:18.281Z,16.90
2022-10-24T06:43:49.433Z,17.00
2022-10-24T06:46:23.251Z,17.00
2022-10-24T06:48:57.022Z,17.00
2022-10-24T06:51:28.618Z,17.00
2022-10-24T06:54:03.112Z,17.00
2022-10-24T06:56:34.420Z,17.00
2022-10-24T06:59:05.120Z,17.10
2022-10-24T07:01:36.028Z,17.10
2022-10-24T07:04:07.770Z,17.10
2022-10-24T07:06:39.054Z,17.00
2022-10-24T07:09:15.689Z,17.00
2022-10-24T07:11:46.712Z,17.10
2022-10-24T07:14:17.500Z,17.10
2022-10-24T07:16:48.533Z,17.00
2022-10-24T07:19:19.250Z,17.40
2022-10-24T07:21:50.282Z,17.20
2022-10-24T07:24:23.717Z,17.20
2022-10-24T07:26:55.575Z,17.20
2022-10-24T07:29:26.956Z,17.30
2022-10-24T07:31:59.941Z,17.30
2022-10-24T07:34:30.630Z,17.40
2022-10-24T07:37:01.380Z,17.50
2022-10-24T07:39:34.861Z,17.50
2022-10-24T07:42:07.753Z,17.50
2022-10-24T07:44:38.799Z,17.50
2022-10-24T07:47:15.472Z,17.60
2022-10-24T07:49:52.012Z,17.60
2022-10-24T07:52:22.784Z,17.70
2022-10-24T07:55:01.785Z,17.90
2022-10-24T07:57:35.263Z,18.00
2022-10-24T08:00:06.760Z,18.20
2022-10-24T08:02:40.232Z,18.20
2022-10-24T08:05:13.379Z,18.30
2022-10-24T08:07:56.123Z,18.40
2022-10-24T08:10:41.579Z,18.40
2022-10-24T08:13:13.598Z,18.40
2022-10-24T08:15:44.967Z,18.40
2022-10-24T08:18:15.695Z,18.40
2022-10-24T08:20:48.578Z,18.30
2022-10-24T08:23:24.634Z,18.20
2022-10-24T08:25:59.536Z,18.20
2022-10-24T08:28:30.247Z,18.30
2022-10-24T08:31:03.197Z,18.40
2022-10-24T08:33:35.944Z,18.50
2022-10-24T08:36:10.110Z,18.50
2022-10-24T08:38:41.975Z,18.60
2022-10-24T08:41:20.070Z,18.60
2022-10-24T08:43:51.167Z,18.60
2022-10-24T08:46:48.932Z,19.00
2022-10-24T08:49:31.913Z,18.60
2022-10-24T08:52:06.137Z,18.60
2022-10-24T08:54:39.833Z,18.90
2022-10-24T09:00:29.665Z,18.80
2022-10-24T09:03:06.576Z,18.50
2022-10-24T09:05:40.725Z,18.50
2022-10-24T09:08:25.102Z,18.40
2022-10-24T09:11:00.376Z,18.40
2022-10-24T09:13:38.838Z,18.80
2022-10-24T09:16:13.676Z,18.30
2022-10-24T09:18:47.280Z,18.30
2022-10-24T09:21:19.041Z,18.30
2022-10-24T09:23:50.847Z,18.30
2022-10-24T09:26:28.524Z,18.30
2022-10-24T09:29:01.955Z,18.20
2022-10-24T09:31:32.731Z,18.20
2022-10-24T09:34:04.262Z,18.30
2022-10-24T09:36:35.199Z,18.20
2022-10-24T09:39:31.952Z,18.20
2022-10-24T09:42:04.429Z,18.20
2022-10-24T09:44:43.785Z,18.10
2022-10-24T09:47:30.191Z,18.60
2022-10-24T09:50:02.022Z,18.30
2022-10-24T09:52:35.348Z,18.30
2022-10-24T09:55:20.492Z,18.30
2022-10-24T09:57:56.773Z,18.30
2022-10-24T10:00:32.913Z,18.20
2022-10-24T10:03:08.822Z,18.30
2022-10-24T10:05:48.569Z,18.30
2022-10-24T10:08:23.273Z,18.30
2022-10-24T10:11:13.502Z,18.20
2022-10-24T10:13:50.443Z,18.20
2022-10-24T10:16:29.031Z,18.20
2022-10-24T10:19:05.539Z,18.20
2022-10-24T10:21:54.986Z,18.20
2022-10-24T10:24:31.086Z,18.20
2022-10-24T10:27:03.360Z,18.70
2022-10-24T10:29:34.172Z,18.40
2022-10-24T10:32:19.890Z,18.40
2022-10-24T10:34:59.134Z,18.40
2022-10-24T10:37:33.478Z,18.50
2022-10-24T10:40:16.548Z,18.50
2022-10-24T10:43:00.939Z,18.50
2022-10-24T10:45:39.294Z,18.40
2022-10-24T10:48:36.068Z,18.50
2022-10-24T10:51:14.288Z,18.60
2022-10-24T10:53:50.125Z,18.60
2022-10-24T10:56:32.943Z,18.60
2022-10-24T10:59:19.454Z,18.60
2022-10-24T11:02:00.394Z,18.60
2022-10-24T11:04:40.688Z,18.50
2022-10-24T11:07:21.955Z,18.50
2022-10-24T11:09:56.268Z,18.60
2022-10-24T11:12:33.356Z,18.60
2022-10-24T11:15:10.378Z,18.80
2022-10-24T11:17:50.145Z,18.60
2022-10-24T11:20:29.725Z,18.60
2022-10-24T11:23:05.000Z,18.60
2022-10-24T11:26:03.341Z,18.60
2022-10-24T11:28:39.928Z,18.40
2022-10-24T11:31:30.115Z,18.60
2022-10-24T11:34:05.067Z,18.40
2022-10-24T11:36:45.841Z,18.40
2022-10-24T11:39:21.392Z,18.40
2022-10-24T11:42:13.123Z,18.30
2022-10-24T11:44:56.259Z,18.30
2022-10-24T11:47:57.517Z,18.30
2022-10-24T11:50:37.124Z,18.30
2022-10-24T11:53:25.354Z,18.30
2022-10-24T11:56:02.542Z,18.40
2022-10-24T11:58:36.596Z,18.40
2022-10-24T12:01:29.741Z,18.40
2022-10-24T12:04:39.855Z,18.40
2022-10-24T12:07:42.971Z,18.40
2022-10-24T12:10:37.524Z,18.30
2022-10-24T12:13:38.618Z,18.30
2022-10-24T12:16:17.838Z,18.30
2022-10-24T12:19:06.960Z,18.30
2022-10-24T12:21:45.099Z,18.20
2022-10-24T12:24:32.916Z,18.20
2022-10-24T12:27:10.336Z,18.60
2022-10-24T12:29:43.169Z,18.30
2022-10-24T12:32:33.029Z,18.30
2022-10-24T12:37:56.725Z,18.30
2022-10-24T12:40:58.912Z,18.50
2022-10-24T12:43:37.999Z,18.20
2022-10-24T12:46:39.933Z,18.60
2022-10-24T12:49:30.266Z,18.10
2022-10-24T12:52:10.525Z,18.00
2022-10-24T12:54:54.713Z,18.00
2022-10-24T12:57:31.737Z,18.00
2022-10-24T13:00:37.322Z,17.90
2022-10-24T13:03:17.016Z,18.00
2022-10-24T13:06:05.227Z,17.90
2022-10-24T13:09:00.509Z,18.00
2022-10-24T13:11:44.229Z,18.10
2022-10-24T13:14:30.301Z,18.30
2022-10-24T13:17:14.873Z,18.20
2022-10-24T13:20:21.538Z,18.20
2022-10-24T13:22:53.559Z,18.30
2022-10-24T13:25:41.113Z,18.20
2022-10-24T13:28:46.446Z,18.20
2022-10-24T13:31:42.518Z,18.20
2022-10-24T13:34:22.347Z,18.20
2022-10-24T13:37:02.620Z,18.50
2022-10-24T13:39:42.517Z,18.30
2022-10-24T13:42:41.399Z,18.30
2022-10-24T13:45:26.095Z,18.50
2022-10-24T13:48:08.553Z,18.70
2022-10-24T13:50:53.710Z,18.60
2022-10-24T13:53:30.861Z,18.60
2022-10-24T13:56:08.190Z,18.70
2022-10-24T13:58:47.691Z,18.70
2022-10-24T14:01:22.633Z,18.70
2022-10-24T14:03:54.843Z,18.90
2022-10-24T14:06:37.092Z,18.80
2022-10-24T14:09:11.698Z,18.70
2022-10-24T14:11:49.179Z,18.70
2022-10-24T14:14:30.363Z,18.70
2022-10-24T14:17:23.375Z,19.10
2022-10-24T14:20:05.846Z,18.70
2022-10-24T14:23:04.704Z,18.80
2022-10-24T14:25:40.462Z,18.80
2022-10-24T14:28:17.169Z,18.90
2022-10-24T14:31:03.043Z,19.30
2022-10-24T14:33:35.396Z,19.10
2022-10-24T14:36:07.318Z,19.00
2022-10-24T14:38:41.300Z,19.00
2022-10-24T14:41:12.845Z,18.90
2022-10-24T14:43:45.638Z,18.80
2022-10-24T14:46:40.196Z,18.70
2022-10-24T14:49:33.763Z,19.00
2022-10-24T14:52:13.561Z,18.80
2022-10-24T14:54:55.119Z,19.00
2022-10-24T14:57:27.427Z,18.90
2022-10-24T15:00:03.135Z,18.90
2022-10-24T15:02:38.960Z,18.90
2022-10-24T15:05:19.215Z,18.80
2022-10-24T15:08:16.703Z,18.70
2022-10-24T15:10:47.359Z,18.70
2022-10-24T15:13:21.202Z,18.70
2022-10-24T15:15:56.266Z,18.70
2022-10-24T15:18:28.637Z,18.70
2022-10-24T15:21:04.866Z,18.60
2022-10-24T15:23:38.413Z,18.50
2022-10-24T15:26:21.325Z,18.90
2022-10-24T15:28:56.364Z,18.90
2022-10-24T15:31:30.256Z,18.50
2022-10-24T15:34:03.540Z,18.50
2022-10-24T15:36:37.251Z,18.90
2022-10-24T15:39:09.970Z,18.40
2022-10-24T15:41:44.440Z,18.30
2022-10-24T15:44:20.624Z,18.30
2022-10-24T15:46:51.979Z,18.20
2022-10-24T15:49:22.696Z,18.20
2022-10-24T15:51:54.129Z,18.20
2022-10-24T15:54:27.052Z,18.20
2022-10-24T15:57:04.973Z,18.30
2022-10-24T15:59:38.989Z,18.30
2022-10-24T16:02:18.805Z,18.10
2022-10-24T16:04:49.755Z,18.10
2022-10-24T16:07:20.620Z,18.10
2022-10-24T16:09:51.405Z,18.00
2022-10-24T16:12:25.410Z,18.00
2022-10-24T16:14:58.806Z,17.80
2022-10-24T16:17:29.688Z,17.60
2022-10-24T16:20:00.504Z,17.40
2022-10-24T16:22:31.511Z,17.20
2022-10-24T16:25:02.449Z,17.00
2022-10-24T16:27:35.773Z,16.80
2022-10-24T16:30:07.523Z,16.80
2022-10-24T16:32:38.292Z,16.90
2022-10-24T16:35:09.988Z,16.90
2022-10-24T16:37:40.756Z,16.80
2022-10-24T16:40:12.509Z,16.80
2022-10-24T16:42:48.254Z,16.80
2022-10-24T16:45:20.265Z,16.70
2022-10-24T16:47:51.818Z,16.70
2022-10-24T16:50:26.280Z,16.90
2022-10-24T16:52:58.675Z,16.70
2022-10-24T16:55:29.994Z,16.60
2022-10-24T16:58:03.369Z,16.60
2022-10-24T17:00:34.186Z,16.50
2022-10-24T17:03:04.970Z,16.40
2022-10-24T17:05:36.109Z,16.30
2022-10-24T17:08:09.211Z,16.20
2022-10-24T17:10:40.031Z,16.30
2022-10-24T17:13:15.275Z,16.30
2022-10-24T17:15:49.807Z,16.20
2022-10-24T17:18:23.488Z,16.20
2022-10-24T17:20:58.922Z,16.20
2022-10-24T17:23:30.404Z,16.20
2022-10-24T17:26:01.860Z,16.20
2022-10-24T17:28:35.644Z,16.20
2022-10-24T17:31:06.706Z,16.20
2022-10-24T17:33:45.380Z,16.10
2022-10-24T17:36:23.720Z,16.20
2022-10-24T17:39:01.038Z,16.20
2022-10-24T17:41:37.162Z,16.20
2022-10-24T17:44:17.471Z,16.50
2022-10-24T17:46:51.464Z,16.10
2022-10-24T17:49:24.183Z,16.10
2022-10-24T17:51:55.023Z,16.10
2022-10-24T17:54:25.790Z,16.10
2022-10-24T17:56:56.533Z,16.10
2022-10-24T17:59:29.903Z,16.30
2022-10-24T18:02:00.907Z,16.10
2022-10-24T18:07:22.445Z,16.00
2022-10-24T18:10:00.120Z,15.90
2022-10-24T18:12:30.920Z,15.70
2022-10-24T18:15:08.295Z,15.50
2022-10-24T18:17:39.217Z,15.50
2022-10-24T18:20:14.227Z,15.50
2022-10-24T18:22:46.987Z,15.50
2022-10-24T18:25:23.384Z,15.60
2022-10-24T18:27:55.435Z,15.30
2022-10-24T18:30:28.931Z,15.40
2022-10-24T18:33:00.773Z,15.30
2022-10-24T18:35:34.091Z,15.20
2022-10-24T18:38:07.408Z,15.10
2022-10-24T18:40:46.253Z,15.00
2022-10-24T18:43:17.834Z,15.00
2022-10-24T18:45:52.591Z,14.90
2022-10-24T18:48:24.356Z,14.70
2022-10-24T18:50:59.913Z,14.70
2022-10-24T18:53:34.076Z,14.70
2022-10-24T18:56:05.759Z,14.70
2022-10-24T18:58:38.110Z,14.70
2022-10-24T19:01:24.609Z,14.70
2022-10-24T19:03:58.983Z,14.70
2022-10-24T19:06:32.151Z,14.60
2022-10-24T19:09:05.558Z,14.60
2022-10-24T19:11:36.592Z,14.60
2022-10-24T19:14:09.426Z,14.60
2022-10-24T19:16:44.352Z,14.60
2022-10-24T19:19:16.997Z,14.60
2022-10-24T19:21:49.950Z,14.60
2022-10-24T19:24:20.991Z,14.50
2022-10-24T19:26:55.649Z,14.50
2022-10-24T19:29:26.557Z,14.50
2022-10-24T19:32:00.390Z,14.70
2022-10-24T19:34:37.412Z,14.50
2022-10-24T19:37:08.121Z,14.40
2022-10-24T19:39:39.640Z,14.50
2022-10-24T19:42:14.255Z,14.40
2022-10-24T19:47:24.890Z,14.40
2022-10-24T19:50:01.020Z,14.30
2022-10-24T19:52:31.804Z,14.40
2022-10-24T19:55:03.778Z,14.40
2022-10-24T19:57:35.876Z,14.40
2022-10-24T20:00:10.467Z,14.30
2022-10-24T20:02:44.586Z,14.40
2022-10-24T20:05:17.079Z,14.30
2022-10-24T20:07:47.861Z,14.40
2022-10-24T20:13:12.462Z,14.60
2022-10-24T20:15:43.234Z,14.70
2022-10-24T20:18:16.921Z,14.70
2022-10-24T20:20:47.785Z,14.70
2022-10-24T20:23:18.894Z,14.60
2022-10-24T20:25:51.375Z,14.60
2022-10-24T20:28:26.203Z,14.60
2022-10-24T20:30:58.836Z,14.70
2022-10-24T20:33:36.547Z,14.60
2022-10-24T20:36:07.798Z,14.60
2022-10-24T20:38:44.526Z,14.50
2022-10-24T20:41:15.716Z,14.60
2022-10-24T20:43:46.580Z,14.60
2022-10-24T20:46:19.320Z,14.70
2022-10-24T20:48:55.216Z,14.70
2022-10-24T20:51:27.367Z,14.70
2022-10-24T20:53:59.480Z,14.70
2022-10-24T20:56:30.308Z,14.70
2022-10-24T20:59:01.066Z,14.70
2022-10-24T21:01:32.698Z,14.70
2022-10-24T21:04:08.075Z,14.70
2022-10-24T21:06:38.921Z,14.70
2022-10-24T21:09:09.962Z,14.70
2022-10-24T21:11:40.964Z,14.80
2022-10-24T21:14:16.277Z,14.80
2022-10-24T21:16:47.009Z,14.90
2022-10-24T21:19:20.424Z,14.80
2022-10-24T21:21:51.185Z,14.80
2022-10-24T21:24:22.081Z,14.80
2022-10-24T21:26:53.762Z,14.80
2022-10-24T21:29:33.737Z,14.80
2022-10-24T21:32:05.260Z,14.80
2022-10-24T21:34:39.208Z,14.90
2022-10-24T21:37:10.209Z,15.20
2022-10-24T21:39:41.020Z,14.90
2022-10-24T21:42:14.798Z,14.90
2022-10-24T21:44:45.780Z,14.80
2022-10-24T21:47:16.549Z,14.90
2022-10-24T21:49:49.868Z,14.80
2022-10-24T21:52:20.630Z,14.80
2022-10-24T21:54:51.326Z,14.90
2022-10-24T21:57:22.242Z,14.90
2022-10-24T21:59:53.653Z,14.90
2022-10-24T22:02:24.472Z,14.90
2022-10-24T22:05:00.640Z,14.90
2022-10-24T22:07:31.704Z,14.90
2022-10-24T22:10:02.486Z,14.90
2022-10-24T22:12:35.162Z,14.80
2022-10-24T22:15:06.215Z,14.70
2022-10-24T22:17:37.331Z,14.70
2022-10-24T22:20:11.960Z,14.70
2022-10-24T22:22:42.745Z,14.70
2022-10-24T22:25:15.605Z,14.60
2022-10-24T22:27:46.611Z,14.60
2022-10-24T22:30:19.551Z,14.70
2022-10-24T22:32:51.051Z,14.60
2022-10-24T22:35:25.491Z,14.60
2022-10-24T22:37:56.966Z,14.60
2022-10-24T22:40:32.384Z,14.60
2022-10-24T22:43:03.821Z,14.60
2022-10-24T22:45:35.515Z,14.70
2022-10-24T22:48:16.044Z,14.70
2022-10-24T22:50:53.907Z,14.70
2022-10-24T22:53:31.851Z,14.70
2022-10-24T22:56:19.388Z,14.60
2022-10-24T22:58:50.935Z,14.60
2022-10-24T23:01:51.087Z,14.70
2022-10-24T23:04:33.403Z,14.70
2022-10-24T23:07:15.777Z,14.60
2022-10-24T23:09:46.541Z,14.70
2022-10-24T23:12:20.280Z,14.70
2022-10-24T23:14:53.479Z,14.70
2022-10-24T23:17:27.774Z,14.70
2022-10-24T23:19:59.958Z,14.70
2022-10-24T23:22:35.213Z,14.70
2022-10-24T23:25:08.755Z,14.80
2022-10-24T23:27:42.352Z,14.70
2022-10-24T23:30:20.777Z,14.70
2022-10-24T23:32:55.878Z,14.70
2022-10-24T23:35:27.308Z,14.70
2022-10-24T23:38:01.403Z,14.80
2022-10-24T23:40:35.744Z,14.80
2022-10-24T23:43:07.825Z,14.90
2022-10-24T23:45:45.475Z,14.90
2022-10-24T23:48:25.205Z,15.20
2022-10-24T23:51:03.191Z,15.40
2022-10-24T23:53:50.376Z,14.90
2022-10-24T23:56:23.970Z,15.00
2022-10-24T23:58:57.966Z,15.00
